sensor_id;sensor_type;location;lat;lon;timestamp;pressure;altitude;pressure_sealevel;temperature;humidity
52735;BME280;38631;47.572;10.704;2023-12-04T00:01:52;92443.06;;;-8.04;100.00
52735;BME280;38631;47.572;10.704;2023-12-04T00:04:17;92446.13;;;-7.54;100.00
52735;BME280;38631;47.572;10.704;2023-12-04T00:06:43;92436.81;;;-7.22;99.97
52735;BME280;38631;47.572;10.704;2023-12-04T00:09:08;92428.09;;;-7.54;100.00
52735;BME280;38631;47.572;10.704;2023-12-04T00:11:33;92428.28;;;-7.55;100.00
52735;BME280;38631;47.572;10.704;2023-12-04T00:13:59;92445.53;;;-7.29;100.00
52735;BME280;38631;47.572;10.704;2023-12-04T00:16:25;92433.81;;;-7.45;100.00
52735;BME280;38631;47.572;10.704;2023-12-04T00:18:50;92426.69;;;-7.23;100.00
52735;BME280;38631;47.572;10.704;2023-12-04T00:21:16;92434.63;;;-7.65;100.00
52735;BME280;38631;47.572;10.704;2023-12-04T00:23:41;92431.66;;;-7.28;100.00
52735;BME280;38631;47.572;10.704;2023-12-04T00:26:06;92437.59;;;-7.41;100.00
52735;BME280;38631;47.572;10.704;2023-12-04T00:28:32;92442.56;;;-7.26;100.00
52735;BME280;38631;47.572;10.704;2023-12-04T00:30:57;92438.59;;;-7.35;100.00
52735;BME280;38631;47.572;10.704;2023-12-04T00:33:22;92434.00;;;-7.20;100.00
52735;BME280;38631;47.572;10.704;2023-12-04T00:35:48;92428.28;;;-7.49;100.00
52735;BME280;38631;47.572;10.704;2023-12-04T00:38:13;92415.78;;;-7.58;100.00
52735;BME280;38631;47.572;10.704;2023-12-04T00:40:38;92417.56;;;-7.39;100.00
52735;BME280;38631;47.572;10.704;2023-12-04T00:43:04;92401.50;;;-7.48;100.00
52735;BME280;38631;47.572;10.704;2023-12-04T00:45:29;92402.69;;;-7.24;100.00
52735;BME280;38631;47.572;10.704;2023-12-04T00:47:55;92412.75;;;-6.89;99.61
52735;BME280;38631;47.572;10.704;2023-12-04T00:50:20;92401.69;;;-7.36;98.40
52735;BME280;38631;47.572;10.704;2023-12-04T00:52:45;92400.53;;;-7.47;99.14
52735;BME280;38631;47.572;10.704;2023-12-04T00:55:11;92402.09;;;-7.66;99.80
52735;BME280;38631;47.572;10.704;2023-12-04T00:57:36;92390.41;;;-7.42;99.30
52735;BME280;38631;47.572;10.704;2023-12-04T01:00:02;92389.78;;;-7.50;98.24
52735;BME280;38631;47.572;10.704;2023-12-04T01:02:28;92386.22;;;-7.56;100.00
52735;BME280;38631;47.572;10.704;2023-12-04T01:04:53;92370.94;;;-7.31;98.62
52735;BME280;38631;47.572;10.704;2023-12-04T01:07:19;92391.59;;;-7.44;98.81
52735;BME280;38631;47.572;10.704;2023-12-04T01:09:44;92394.94;;;-7.17;98.59
52735;BME280;38631;47.572;10.704;2023-12-04T01:12:09;92392.50;;;-6.92;96.52
52735;BME280;38631;47.572;10.704;2023-12-04T01:14:35;92381.06;;;-7.56;97.14
52735;BME280;38631;47.572;10.704;2023-12-04T01:17:03;92388.59;;;-8.01;99.64
52735;BME280;38631;47.572;10.704;2023-12-04T01:19:28;92377.91;;;-7.58;99.02
52735;BME280;38631;47.572;10.704;2023-12-04T01:21:54;92379.47;;;-7.24;98.50
52735;BME280;38631;47.572;10.704;2023-12-04T01:24:19;92389.97;;;-8.12;98.37
52735;BME280;38631;47.572;10.704;2023-12-04T01:26:45;92377.91;;;-7.85;99.71
52735;BME280;38631;47.572;10.704;2023-12-04T01:29:10;92378.69;;;-7.97;98.50
52735;BME280;38631;47.572;10.704;2023-12-04T01:31:35;92358.47;;;-7.94;100.00
52735;BME280;38631;47.572;10.704;2023-12-04T01:34:01;92368.72;;;-8.20;99.41
52735;BME280;38631;47.572;10.704;2023-12-04T01:36:26;92368.78;;;-7.74;100.00
52735;BME280;38631;47.572;10.704;2023-12-04T01:38:52;92360.03;;;-7.93;100.00
52735;BME280;38631;47.572;10.704;2023-12-04T01:41:17;92339.44;;;-7.93;100.00
52735;BME280;38631;47.572;10.704;2023-12-04T01:43:42;92341.25;;;-7.67;100.00
52735;BME280;38631;47.572;10.704;2023-12-04T01:46:08;92342.41;;;-7.83;100.00
52735;BME280;38631;47.572;10.704;2023-12-04T01:48:34;92336.25;;;-7.55;99.41
52735;BME280;38631;47.572;10.704;2023-12-04T01:51:03;92332.69;;;-7.61;98.01
52735;BME280;38631;47.572;10.704;2023-12-04T01:53:32;92327.56;;;-7.94;98.85
52735;BME280;38631;47.572;10.704;2023-12-04T01:55:57;92318.81;;;-7.53;98.12
52735;BME280;38631;47.572;10.704;2023-12-04T01:58:23;92327.38;;;-7.72;97.76
52735;BME280;38631;47.572;10.704;2023-12-04T02:00:48;92318.81;;;-7.73;98.27
52735;BME280;38631;47.572;10.704;2023-12-04T02:03:14;92326.38;;;-7.91;98.95
52735;BME280;38631;47.572;10.704;2023-12-04T02:05:39;92301.81;;;-8.07;99.91
52735;BME280;38631;47.572;10.704;2023-12-04T02:08:05;92321.22;;;-7.98;100.00
52735;BME280;38631;47.572;10.704;2023-12-04T02:10:30;92300.41;;;-8.03;100.00
52735;BME280;38631;47.572;10.704;2023-12-04T02:12:56;92306.34;;;-7.83;100.00
52735;BME280;38631;47.572;10.704;2023-12-04T02:15:21;92305.34;;;-7.75;100.00
52735;BME280;38631;47.572;10.704;2023-12-04T02:17:47;92301.19;;;-7.83;100.00
52735;BME280;38631;47.572;10.704;2023-12-04T02:20:13;92297.00;;;-7.64;100.00
52735;BME280;38631;47.572;10.704;2023-12-04T02:22:39;92290.88;;;-8.02;99.21
52735;BME280;38631;47.572;10.704;2023-12-04T02:25:06;92287.91;;;-7.59;100.00
52735;BME280;38631;47.572;10.704;2023-12-04T02:27:41;92292.63;;;-7.50;98.03
52735;BME280;38631;47.572;10.704;2023-12-04T02:30:11;92287.91;;;-7.86;98.22
52735;BME280;38631;47.572;10.704;2023-12-04T02:32:45;92289.91;;;-7.95;99.38
52735;BME280;38631;47.572;10.704;2023-12-04T02:35:11;92289.50;;;-8.05;98.07
52735;BME280;38631;47.572;10.704;2023-12-04T02:37:39;92292.66;;;-7.83;99.03
52735;BME280;38631;47.572;10.704;2023-12-04T02:40:05;92288.94;;;-8.07;97.14
52735;BME280;38631;47.572;10.704;2023-12-04T02:42:31;92282.56;;;-7.91;98.98
52735;BME280;38631;47.572;10.704;2023-12-04T02:44:57;92281.50;;;-7.50;97.17
52735;BME280;38631;47.572;10.704;2023-12-04T02:47:22;92285.13;;;-7.78;96.53
52735;BME280;38631;47.572;10.704;2023-12-04T02:49:48;92283.16;;;-7.89;98.15
52735;BME280;38631;47.572;10.704;2023-12-04T02:52:13;92272.84;;;-7.83;98.07
52735;BME280;38631;47.572;10.704;2023-12-04T02:54:39;92287.53;;;-8.16;99.47
52735;BME280;38631;47.572;10.704;2023-12-04T02:57:04;92283.34;;;-7.71;97.93
52735;BME280;38631;47.572;10.704;2023-12-04T02:59:29;92272.66;;;-8.01;99.17
52735;BME280;38631;47.572;10.704;2023-12-04T03:01:55;92272.88;;;-7.89;97.58
52735;BME280;38631;47.572;10.704;2023-12-04T03:04:20;92274.03;;;-7.85;97.09
52735;BME280;38631;47.572;10.704;2023-12-04T03:06:45;92270.28;;;-7.89;96.01
52735;BME280;38631;47.572;10.704;2023-12-04T03:09:11;92276.81;;;-7.80;95.12
52735;BME280;38631;47.572;10.704;2023-12-04T03:11:39;92270.66;;;-7.79;94.78
52735;BME280;38631;47.572;10.704;2023-12-04T03:14:05;92269.69;;;-7.91;95.06
52735;BME280;38631;47.572;10.704;2023-12-04T03:16:31;92257.41;;;-7.89;95.96
52735;BME280;38631;47.572;10.704;2023-12-04T03:18:56;92259.63;;;-8.46;96.99
52735;BME280;38631;47.572;10.704;2023-12-04T03:21:22;92260.38;;;-7.92;97.46
52735;BME280;38631;47.572;10.704;2023-12-04T03:23:47;92248.88;;;-7.83;97.01
52735;BME280;38631;47.572;10.704;2023-12-04T03:26:12;92249.47;;;-7.74;96.18
52735;BME280;38631;47.572;10.704;2023-12-04T03:28:38;92251.03;;;-7.67;96.71
52735;BME280;38631;47.572;10.704;2023-12-04T03:31:05;92243.75;;;-8.10;97.03
52735;BME280;38631;47.572;10.704;2023-12-04T03:33:31;92255.63;;;-7.82;98.75
52735;BME280;38631;47.572;10.704;2023-12-04T03:35:56;92245.69;;;-7.85;98.19
52735;BME280;38631;47.572;10.704;2023-12-04T03:38:21;92245.03;;;-7.54;98.26
52735;BME280;38631;47.572;10.704;2023-12-04T03:40:47;92239.44;;;-7.38;96.97
52735;BME280;38631;47.572;10.704;2023-12-04T03:43:12;92232.63;;;-7.77;96.25
52735;BME280;38631;47.572;10.704;2023-12-04T03:45:37;92235.88;;;-7.43;96.29
52735;BME280;38631;47.572;10.704;2023-12-04T03:48:03;92237.91;;;-7.65;94.43
52735;BME280;38631;47.572;10.704;2023-12-04T03:50:28;92232.16;;;-7.54;94.57
52735;BME280;38631;47.572;10.704;2023-12-04T03:52:53;92236.53;;;-7.61;96.04
52735;BME280;38631;47.572;10.704;2023-12-04T03:55:19;92240.09;;;-7.55;96.25
52735;BME280;38631;47.572;10.704;2023-12-04T03:57:45;92221.06;;;-7.68;95.51
52735;BME280;38631;47.572;10.704;2023-12-04T04:00:11;92222.06;;;-7.62;98.01
52735;BME280;38631;47.572;10.704;2023-12-04T04:02:38;92227.78;;;-7.60;98.67
52735;BME280;38631;47.572;10.704;2023-12-04T04:05:04;92225.25;;;-7.73;99.33
52735;BME280;38631;47.572;10.704;2023-12-04T04:07:29;92221.91;;;-7.80;99.04
52735;BME280;38631;47.572;10.704;2023-12-04T04:09:55;92217.94;;;-7.76;99.82
52735;BME280;38631;47.572;10.704;2023-12-04T04:12:20;92225.91;;;-7.85;100.00
52735;BME280;38631;47.572;10.704;2023-12-04T04:14:46;92219.25;;;-7.47;99.84
52735;BME280;38631;47.572;10.704;2023-12-04T04:17:11;92214.22;;;-7.22;97.46
52735;BME280;38631;47.572;10.704;2023-12-04T04:19:37;92230.84;;;-7.18;97.41
52735;BME280;38631;47.572;10.704;2023-12-04T04:22:02;92199.91;;;-7.70;98.89
52735;BME280;38631;47.572;10.704;2023-12-04T04:24:28;92212.38;;;-7.67;99.05
52735;BME280;38631;47.572;10.704;2023-12-04T04:26:54;92208.19;;;-7.61;99.67
52735;BME280;38631;47.572;10.704;2023-12-04T04:29:19;92195.47;;;-7.63;100.00
52735;BME280;38631;47.572;10.704;2023-12-04T04:31:44;92201.56;;;-7.37;99.57
52735;BME280;38631;47.572;10.704;2023-12-04T04:34:10;92206.75;;;-7.44;99.09
52735;BME280;38631;47.572;10.704;2023-12-04T04:36:35;92208.19;;;-7.68;98.87
52735;BME280;38631;47.572;10.704;2023-12-04T04:39:01;92200.56;;;-7.43;100.00
52735;BME280;38631;47.572;10.704;2023-12-04T04:41:26;92203.13;;;-7.36;99.22
52735;BME280;38631;47.572;10.704;2023-12-04T04:43:52;92197.88;;;-7.61;100.00
52735;BME280;38631;47.572;10.704;2023-12-04T04:46:18;92190.78;;;-7.79;100.00
52735;BME280;38631;47.572;10.704;2023-12-04T04:48:43;92194.41;;;-7.35;100.00
52735;BME280;38631;47.572;10.704;2023-12-04T04:51:09;92183.78;;;-7.13;99.09
52735;BME280;38631;47.572;10.704;2023-12-04T04:53:34;92191.44;;;-7.39;98.23
52735;BME280;38631;47.572;10.704;2023-12-04T04:55:59;92188.13;;;-7.52;98.83
52735;BME280;38631;47.572;10.704;2023-12-04T04:58:25;92192.06;;;-7.43;100.00
52735;BME280;38631;47.572;10.704;2023-12-04T05:00:50;92186.66;;;-7.35;98.70
52735;BME280;38631;47.572;10.704;2023-12-04T05:03:15;92191.63;;;-7.40;99.25
52735;BME280;38631;47.572;10.704;2023-12-04T05:05:41;92184.91;;;-7.41;98.07
52735;BME280;38631;47.572;10.704;2023-12-04T05:08:06;92173.19;;;-7.37;99.42
52735;BME280;38631;47.572;10.704;2023-12-04T05:10:32;92183.03;;;-7.21;98.67
52735;BME280;38631;47.572;10.704;2023-12-04T05:12:57;92176.69;;;-7.25;98.06
52735;BME280;38631;47.572;10.704;2023-12-04T05:15:23;92177.53;;;-7.38;97.41
52735;BME280;38631;47.572;10.704;2023-12-04T05:17:48;92173.09;;;-7.17;96.23
52735;BME280;38631;47.572;10.704;2023-12-04T05:20:14;92181.25;;;-7.20;95.56
52735;BME280;38631;47.572;10.704;2023-12-04T05:22:40;92180.75;;;-7.42;95.48
52735;BME280;38631;47.572;10.704;2023-12-04T05:25:05;92172.44;;;-7.44;96.54
52735;BME280;38631;47.572;10.704;2023-12-04T05:27:31;92184.88;;;-7.93;99.08
52735;BME280;38631;47.572;10.704;2023-12-04T05:29:57;92178.44;;;-7.57;99.05
52735;BME280;38631;47.572;10.704;2023-12-04T05:32:22;92166.16;;;-7.68;97.56
52735;BME280;38631;47.572;10.704;2023-12-04T05:34:47;92178.47;;;-7.70;99.15
52735;BME280;38631;47.572;10.704;2023-12-04T05:37:13;92179.41;;;-7.58;100.00
52735;BME280;38631;47.572;10.704;2023-12-04T05:39:38;92165.97;;;-7.22;99.62
52735;BME280;38631;47.572;10.704;2023-12-04T05:42:03;92165.06;;;-7.34;99.05
52735;BME280;38631;47.572;10.704;2023-12-04T05:44:30;92167.69;;;-7.47;99.27
52735;BME280;38631;47.572;10.704;2023-12-04T05:46:55;92147.59;;;-7.32;98.89
52735;BME280;38631;47.572;10.704;2023-12-04T05:49:21;92161.09;;;-6.98;97.30
52735;BME280;38631;47.572;10.704;2023-12-04T05:51:46;92157.56;;;-7.10;96.45
52735;BME280;38631;47.572;10.704;2023-12-04T05:54:12;92153.75;;;-7.01;97.65
52735;BME280;38631;47.572;10.704;2023-12-04T05:56:37;92148.22;;;-7.05;95.65
52735;BME280;38631;47.572;10.704;2023-12-04T05:59:02;92146.22;;;-7.03;96.73
52735;BME280;38631;47.572;10.704;2023-12-04T06:01:28;92138.81;;;-7.24;97.28
52735;BME280;38631;47.572;10.704;2023-12-04T06:03:53;92149.06;;;-7.18;97.62
52735;BME280;38631;47.572;10.704;2023-12-04T06:06:19;92147.84;;;-7.47;98.55
52735;BME280;38631;47.572;10.704;2023-12-04T06:08:44;92149.38;;;-7.01;97.71
52735;BME280;38631;47.572;10.704;2023-12-04T06:11:09;92147.06;;;-7.47;99.37
52735;BME280;38631;47.572;10.704;2023-12-04T06:13:35;92157.53;;;-6.97;97.75
52735;BME280;38631;47.572;10.704;2023-12-04T06:16:01;92155.59;;;-7.08;98.08
52735;BME280;38631;47.572;10.704;2023-12-04T06:18:26;92146.56;;;-7.24;97.20
52735;BME280;38631;47.572;10.704;2023-12-04T06:20:52;92141.34;;;-7.18;98.42
52735;BME280;38631;47.572;10.704;2023-12-04T06:23:17;92141.28;;;-7.04;97.55
52735;BME280;38631;47.572;10.704;2023-12-04T06:25:43;92140.03;;;-7.33;98.06
52735;BME280;38631;47.572;10.704;2023-12-04T06:28:09;92139.97;;;-7.58;100.00
52735;BME280;38631;47.572;10.704;2023-12-04T06:30:35;92131.94;;;-7.37;100.00
52735;BME280;38631;47.572;10.704;2023-12-04T06:33:00;92130.00;;;-7.48;100.00
52735;BME280;38631;47.572;10.704;2023-12-04T06:35:26;92123.59;;;-7.01;99.65
52735;BME280;38631;47.572;10.704;2023-12-04T06:37:54;92122.72;;;-7.20;98.46
52735;BME280;38631;47.572;10.704;2023-12-04T06:40:21;92123.19;;;-7.36;100.00
52735;BME280;38631;47.572;10.704;2023-12-04T06:42:47;92118.38;;;-7.26;100.00
52735;BME280;38631;47.572;10.704;2023-12-04T06:45:12;92110.94;;;-7.09;100.00
52735;BME280;38631;47.572;10.704;2023-12-04T06:47:40;92124.66;;;-7.15;100.00
52735;BME280;38631;47.572;10.704;2023-12-04T06:50:05;92119.41;;;-7.27;100.00
52735;BME280;38631;47.572;10.704;2023-12-04T06:52:31;92103.72;;;-7.00;100.00
52735;BME280;38631;47.572;10.704;2023-12-04T06:54:56;92115.44;;;-6.72;99.96
52735;BME280;38631;47.572;10.704;2023-12-04T06:57:22;92109.34;;;-6.78;99.04
52735;BME280;38631;47.572;10.704;2023-12-04T06:59:47;92114.22;;;-6.70;100.00
52735;BME280;38631;47.572;10.704;2023-12-04T07:02:12;92111.75;;;-6.58;99.89
52735;BME280;38631;47.572;10.704;2023-12-04T07:04:38;92100.25;;;-7.12;100.00
52735;BME280;38631;47.572;10.704;2023-12-04T07:07:03;92110.66;;;-6.94;100.00
52735;BME280;38631;47.572;10.704;2023-12-04T07:09:33;92107.91;;;-6.99;100.00
52735;BME280;38631;47.572;10.704;2023-12-04T07:12:02;92110.97;;;-6.84;100.00
52735;BME280;38631;47.572;10.704;2023-12-04T07:14:28;92108.09;;;-6.69;100.00
52735;BME280;38631;47.572;10.704;2023-12-04T07:16:53;92100.53;;;-6.70;100.00
52735;BME280;38631;47.572;10.704;2023-12-04T07:19:19;92106.72;;;-7.03;100.00
52735;BME280;38631;47.572;10.704;2023-12-04T07:21:45;92097.94;;;-6.96;100.00
52735;BME280;38631;47.572;10.704;2023-12-04T07:24:10;92085.84;;;-6.70;100.00
52735;BME280;38631;47.572;10.704;2023-12-04T07:26:36;92097.84;;;-6.82;100.00
52735;BME280;38631;47.572;10.704;2023-12-04T07:29:02;92095.09;;;-6.87;100.00
52735;BME280;38631;47.572;10.704;2023-12-04T07:31:28;92096.53;;;-6.91;100.00
52735;BME280;38631;47.572;10.704;2023-12-04T07:33:54;92082.31;;;-6.76;100.00
52735;BME280;38631;47.572;10.704;2023-12-04T07:36:19;92079.72;;;-6.76;100.00
52735;BME280;38631;47.572;10.704;2023-12-04T07:38:45;92086.53;;;-6.56;100.00
52735;BME280;38631;47.572;10.704;2023-12-04T07:41:10;92082.00;;;-6.61;100.00
52735;BME280;38631;47.572;10.704;2023-12-04T07:43:36;92081.63;;;-6.64;100.00
52735;BME280;38631;47.572;10.704;2023-12-04T07:46:01;92089.38;;;-6.64;100.00
52735;BME280;38631;47.572;10.704;2023-12-04T07:48:27;92073.78;;;-6.51;100.00
52735;BME280;38631;47.572;10.704;2023-12-04T07:50:52;92069.91;;;-6.42;100.00
52735;BME280;38631;47.572;10.704;2023-12-04T07:53:17;92076.50;;;-6.46;100.00
52735;BME280;38631;47.572;10.704;2023-12-04T07:55:43;92077.28;;;-6.45;100.00
52735;BME280;38631;47.572;10.704;2023-12-04T07:58:09;92062.56;;;-6.63;100.00
52735;BME280;38631;47.572;10.704;2023-12-04T08:00:34;92073.88;;;-6.21;100.00
52735;BME280;38631;47.572;10.704;2023-12-04T08:03:00;92071.63;;;-6.54;100.00
52735;BME280;38631;47.572;10.704;2023-12-04T08:05:25;92056.06;;;-6.29;100.00
52735;BME280;38631;47.572;10.704;2023-12-04T08:07:52;92061.59;;;-6.25;100.00
52735;BME280;38631;47.572;10.704;2023-12-04T08:10:18;92074.94;;;-6.10;100.00
52735;BME280;38631;47.572;10.704;2023-12-04T08:12:45;92078.97;;;-5.96;100.00
52735;BME280;38631;47.572;10.704;2023-12-04T08:15:11;92085.69;;;-5.76;100.00
52735;BME280;38631;47.572;10.704;2023-12-04T08:17:36;92084.16;;;-5.96;100.00
52735;BME280;38631;47.572;10.704;2023-12-04T08:20:02;92073.81;;;-5.96;100.00
52735;BME280;38631;47.572;10.704;2023-12-04T08:22:29;92077.63;;;-5.68;100.00
52735;BME280;38631;47.572;10.704;2023-12-04T08:24:54;92089.38;;;-6.02;100.00
52735;BME280;38631;47.572;10.704;2023-12-04T08:27:20;92087.84;;;-5.73;100.00
52735;BME280;38631;47.572;10.704;2023-12-04T08:29:45;92087.38;;;-6.00;100.00
52735;BME280;38631;47.572;10.704;2023-12-04T08:32:11;92093.31;;;-6.00;100.00
52735;BME280;38631;47.572;10.704;2023-12-04T08:34:36;92095.25;;;-5.95;100.00
52735;BME280;38631;47.572;10.704;2023-12-04T08:37:02;92089.53;;;-5.67;100.00
52735;BME280;38631;47.572;10.704;2023-12-04T08:39:27;92093.09;;;-5.50;100.00
52735;BME280;38631;47.572;10.704;2023-12-04T08:41:52;92091.13;;;-5.66;100.00
52735;BME280;38631;47.572;10.704;2023-12-04T08:44:18;92095.59;;;-5.73;100.00
52735;BME280;38631;47.572;10.704;2023-12-04T08:46:44;92088.06;;;-5.45;100.00
52735;BME280;38631;47.572;10.704;2023-12-04T08:49:09;92085.31;;;-5.31;100.00
52735;BME280;38631;47.572;10.704;2023-12-04T08:51:35;92082.88;;;-5.56;100.00
52735;BME280;38631;47.572;10.704;2023-12-04T08:54:00;92078.22;;;-5.36;100.00
52735;BME280;38631;47.572;10.704;2023-12-04T08:56:26;92074.09;;;-5.25;100.00
52735;BME280;38631;47.572;10.704;2023-12-04T08:58:51;92068.91;;;-5.25;100.00
52735;BME280;38631;47.572;10.704;2023-12-04T09:01:17;92080.28;;;-5.26;100.00
52735;BME280;38631;47.572;10.704;2023-12-04T09:03:42;92078.38;;;-5.49;100.00
52735;BME280;38631;47.572;10.704;2023-12-04T09:06:08;92081.94;;;-5.32;100.00
52735;BME280;38631;47.572;10.704;2023-12-04T09:08:34;92088.50;;;-5.17;100.00
52735;BME280;38631;47.572;10.704;2023-12-04T09:11:03;92084.44;;;-5.25;100.00
52735;BME280;38631;47.572;10.704;2023-12-04T09:13:34;92079.47;;;-4.96;100.00
52735;BME280;38631;47.572;10.704;2023-12-04T09:16:00;92082.19;;;-4.91;100.00
52735;BME280;38631;47.572;10.704;2023-12-04T09:18:25;92073.34;;;-5.02;100.00
52735;BME280;38631;47.572;10.704;2023-12-04T09:20:50;92077.34;;;-4.88;100.00
52735;BME280;38631;47.572;10.704;2023-12-04T09:23:16;92065.66;;;-4.79;100.00
52735;BME280;38631;47.572;10.704;2023-12-04T09:25:41;92069.28;;;-5.10;100.00
52735;BME280;38631;47.572;10.704;2023-12-04T09:28:06;92080.72;;;-4.87;100.00
52735;BME280;38631;47.572;10.704;2023-12-04T09:30:33;92077.00;;;-4.91;100.00
52735;BME280;38631;47.572;10.704;2023-12-04T09:32:59;92077.16;;;-5.16;100.00
52735;BME280;38631;47.572;10.704;2023-12-04T09:35:24;92063.38;;;-4.98;100.00
52735;BME280;38631;47.572;10.704;2023-12-04T09:37:49;92081.44;;;-4.68;100.00
52735;BME280;38631;47.572;10.704;2023-12-04T09:40:16;92081.75;;;-4.65;100.00
52735;BME280;38631;47.572;10.704;2023-12-04T09:42:41;92076.09;;;-4.85;100.00
52735;BME280;38631;47.572;10.704;2023-12-04T09:45:08;92074.34;;;-4.61;100.00
52735;BME280;38631;47.572;10.704;2023-12-04T09:47:34;92075.81;;;-4.53;100.00
52735;BME280;38631;47.572;10.704;2023-12-04T09:49:59;92072.44;;;-4.42;100.00
52735;BME280;38631;47.572;10.704;2023-12-04T09:52:27;92065.00;;;-4.27;100.00
52735;BME280;38631;47.572;10.704;2023-12-04T09:54:52;92066.81;;;-4.51;100.00
52735;BME280;38631;47.572;10.704;2023-12-04T09:57:18;92068.81;;;-4.18;100.00
52735;BME280;38631;47.572;10.704;2023-12-04T09:59:44;92056.00;;;-4.36;100.00
52735;BME280;38631;47.572;10.704;2023-12-04T10:02:11;92065.78;;;-4.38;100.00
52735;BME280;38631;47.572;10.704;2023-12-04T10:04:37;92053.72;;;-4.21;100.00
52735;BME280;38631;47.572;10.704;2023-12-04T10:07:02;92049.75;;;-4.12;100.00
52735;BME280;38631;47.572;10.704;2023-12-04T10:09:28;92046.41;;;-4.24;100.00
52735;BME280;38631;47.572;10.704;2023-12-04T10:11:56;92041.00;;;-4.22;100.00
52735;BME280;38631;47.572;10.704;2023-12-04T10:14:22;92035.34;;;-4.07;100.00
52735;BME280;38631;47.572;10.704;2023-12-04T10:16:48;92027.34;;;-4.06;100.00
52735;BME280;38631;47.572;10.704;2023-12-04T10:19:23;92017.63;;;-3.99;100.00
52735;BME280;38631;47.572;10.704;2023-12-04T10:21:51;92004.88;;;-4.00;100.00
52735;BME280;38631;47.572;10.704;2023-12-04T10:24:36;91996.06;;;-3.87;100.00
52735;BME280;38631;47.572;10.704;2023-12-04T10:27:03;92003.28;;;-3.89;100.00
52735;BME280;38631;47.572;10.704;2023-12-04T10:29:48;91998.88;;;-3.89;100.00
52735;BME280;38631;47.572;10.704;2023-12-04T10:32:19;91992.59;;;-3.93;100.00
52735;BME280;38631;47.572;10.704;2023-12-04T10:34:48;91995.47;;;-3.78;100.00
52735;BME280;38631;47.572;10.704;2023-12-04T10:37:14;91980.69;;;-3.77;100.00
52735;BME280;38631;47.572;10.704;2023-12-04T10:39:48;91972.25;;;-3.84;100.00
52735;BME280;38631;47.572;10.704;2023-12-04T10:42:29;91964.53;;;-3.67;100.00
52735;BME280;38631;47.572;10.704;2023-12-04T10:44:56;91950.03;;;-3.80;100.00
52735;BME280;38631;47.572;10.704;2023-12-04T10:47:22;91955.41;;;-3.70;100.00
52735;BME280;38631;47.572;10.704;2023-12-04T10:49:49;91954.97;;;-3.50;100.00
52735;BME280;38631;47.572;10.704;2023-12-04T10:52:15;91933.19;;;-3.49;100.00
52735;BME280;38631;47.572;10.704;2023-12-04T10:54:40;91941.53;;;-3.47;100.00
52735;BME280;38631;47.572;10.704;2023-12-04T10:57:07;91927.81;;;-3.59;100.00
52735;BME280;38631;47.572;10.704;2023-12-04T10:59:38;91944.91;;;-3.47;100.00
52735;BME280;38631;47.572;10.704;2023-12-04T11:02:05;91939.72;;;-3.47;100.00
52735;BME280;38631;47.572;10.704;2023-12-04T11:04:35;91942.00;;;-3.50;100.00
52735;BME280;38631;47.572;10.704;2023-12-04T11:07:02;91936.63;;;-3.60;100.00
52735;BME280;38631;47.572;10.704;2023-12-04T11:09:29;91936.00;;;-3.67;100.00
52735;BME280;38631;47.572;10.704;2023-12-04T11:11:59;91936.63;;;-3.60;100.00
52735;BME280;38631;47.572;10.704;2023-12-04T11:14:31;91936.47;;;-3.54;100.00
52735;BME280;38631;47.572;10.704;2023-12-04T11:17:02;91952.84;;;-3.53;100.00
52735;BME280;38631;47.572;10.704;2023-12-04T11:19:47;91937.44;;;-3.43;100.00
52735;BME280;38631;47.572;10.704;2023-12-04T11:22:14;91924.84;;;-3.51;100.00
52735;BME280;38631;47.572;10.704;2023-12-04T11:24:47;91927.81;;;-3.59;100.00
52735;BME280;38631;47.572;10.704;2023-12-04T11:27:16;91940.28;;;-3.44;100.00
52735;BME280;38631;47.572;10.704;2023-12-04T11:29:43;91930.06;;;-3.34;100.00
52735;BME280;38631;47.572;10.704;2023-12-04T11:32:14;91928.56;;;-3.30;100.00
52735;BME280;38631;47.572;10.704;2023-12-04T11:34:47;91926.91;;;-3.19;100.00
52735;BME280;38631;47.572;10.704;2023-12-04T11:37:13;91919.13;;;-3.19;100.00
52735;BME280;38631;47.572;10.704;2023-12-04T11:43:27;91892.31;;;-3.25;100.00
52735;BME280;38631;47.572;10.704;2023-12-04T11:45:53;91898.28;;;-3.08;100.00
52735;BME280;38631;47.572;10.704;2023-12-04T11:48:30;91894.78;;;-2.96;100.00
52735;BME280;38631;47.572;10.704;2023-12-04T11:50:57;91901.19;;;-3.04;100.00
52735;BME280;38631;47.572;10.704;2023-12-04T11:53:23;91902.69;;;-3.08;100.00
52735;BME280;38631;47.572;10.704;2023-12-04T11:55:48;91907.16;;;-3.04;100.00
52735;BME280;38631;47.572;10.704;2023-12-04T11:58:15;91932.56;;;-2.89;100.00
52735;BME280;38631;47.572;10.704;2023-12-04T12:00:42;91921.72;;;-2.86;100.00
52735;BME280;38631;47.572;10.704;2023-12-04T12:03:08;91908.19;;;-2.88;100.00
52735;BME280;38631;47.572;10.704;2023-12-04T12:05:35;91916.59;;;-2.97;100.00
52735;BME280;38631;47.572;10.704;2023-12-04T12:08:02;91918.09;;;-2.85;100.00
52735;BME280;38631;47.572;10.704;2023-12-04T12:10:28;91916.59;;;-2.80;100.00
52735;BME280;38631;47.572;10.704;2023-12-04T12:12:55;91917.75;;;-2.71;100.00
52735;BME280;38631;47.572;10.704;2023-12-04T12:15:20;91925.03;;;-2.90;100.00
52735;BME280;38631;47.572;10.704;2023-12-04T12:17:45;91917.06;;;-2.84;100.00
52735;BME280;38631;47.572;10.704;2023-12-04T12:20:13;91916.44;;;-2.91;100.00
52735;BME280;38631;47.572;10.704;2023-12-04T12:22:39;91920.38;;;-2.88;100.00
52735;BME280;38631;47.572;10.704;2023-12-04T12:25:09;91922.88;;;-2.76;100.00
52735;BME280;38631;47.572;10.704;2023-12-04T12:27:35;91921.38;;;-2.72;100.00
52735;BME280;38631;47.572;10.704;2023-12-04T12:30:02;91909.22;;;-2.67;100.00
52735;BME280;38631;47.572;10.704;2023-12-04T12:32:30;91913.41;;;-2.66;100.00
52735;BME280;38631;47.572;10.704;2023-12-04T12:34:56;91914.00;;;-2.58;100.00
52735;BME280;38631;47.572;10.704;2023-12-04T12:37:21;91902.28;;;-2.61;100.00
52735;BME280;38631;47.572;10.704;2023-12-04T12:39:47;91902.19;;;-2.49;100.00
52735;BME280;38631;47.572;10.704;2023-12-04T12:42:24;91887.91;;;-2.47;100.00